Budweis, Czech Republic
Current Conditions -  °F | °C
As of 9:50 AM on Monday 24 Nov 2014 (Local Time) from LOWL Reporting Station
Haze Haze  
Wind Chill: 34°   Ceiling: 700
Heat Index: 39°   Visibility: 3mi
Dew Point: 37°   Wind: 8mph
Humidity: 93%   Direction: 90°E
Pressure: 30.24"   Gusts: NA
Location:  48.99°N, 14.56°E
Report Text: LOWL 240750Z 09007KT 060V120 5000 BR OVC007 04/03 Q1024 NOSIG
Loading
Personal Weather Stations






























Interactive Weather Map New forecast layout! Learn more

10-Day Weather Forecast

Advertisements
Track Severe Weather on mobile